Time;durP1;ratioP1;P1;durP2;ratioP2;P2;SDS_P1;SDS_P2;PMS_P1;PMS_P2;Temp;Humidity;BMP_temperature;BMP_pressure;BME280_temperature;BME280_humidity;BME280_pressure;Samples;Min_cycle;Max_cycle;Signal;HPM_P1;HPM_P2
2023/04/09 00:09:40;;;;;;;49.00;31.60;;;;;;;7.22;68.09;101092.20;122756;1295;5438912;-65
2023/04/09 00:13:41;;;;;;;56.50;36.40;;;;;;;7.20;67.91;101093.51;126577;1292;115012;-65
2023/04/09 00:17:39;;;;;;;58.60;37.60;;;;;;;7.18;67.91;101091.44;125759;1312;114900;-65
2023/04/09 00:21:40;;;;;;;61.20;36.70;;;;;;;7.15;68.18;101089.52;125152;1323;129895;-65
2023/04/09 01:02:36;;;;;;;;;;;;;;;;;;;;;
2023/04/09 01:10:50;;;;;;;60.20;38.50;;;;;;;7.12;68.68;101094.05;128772;1271;115237;-65
2023/04/09 01:15:00;;;;;;;60.40;37.60;;;;;;;7.11;68.68;101093.00;124814;1276;5516005;-66
2023/04/09 01:19:15;;;;;;;61.80;39.40;;;;;;;7.09;68.78;101102.11;128396;1279;114803;-65
2023/04/09 01:23:16;;;;;;;58.80;39.10;;;;;;;7.05;69.12;101113.56;128437;1274;114874;-65
2023/04/09 01:27:22;;;;;;;66.10;41.70;;;;;;;7.02;69.27;101113.80;128572;1277;114829;-66
2023/04/09 01:31:25;;;;;;;59.70;39.00;;;;;;;7.00;69.25;101114.56;128334;1296;128005;-65
2023/04/09 01:39:31;;;;;;;60.80;39.60;;;;;;;6.97;69.37;101123.50;126881;1292;114932;-66
2023/04/09 01:43:33;;;;;;;66.50;41.70;;;;;;;6.93;69.37;101124.83;126078;1301;114782;-65
2023/04/09 01:47:34;;;;;;;63.90;40.90;;;;;;;6.90;69.59;101134.66;126183;1296;114805;-66
2023/04/09 01:51:33;;;;;;;;;;;;;;;;;;;;;
2023/04/09 01:59:19;;;;;;;;;;;;;;;;;;;;;
2023/04/09 02:03:21;;;;;;;68.90;42.20;;;;;;;6.75;70.03;101136.20;125132;1301;115107;-66
2023/04/09 02:07:34;;;;;;;61.90;38.80;;;;;;;6.72;69.97;101138.40;124862;1313;114985;-64
2023/04/09 02:11:33;;;;;;;;;;;;;;;;;;;;;
2023/04/09 02:15:35;;;;;;;69.60;43.50;;;;;;;6.60;70.06;101134.73;124342;1315;117230;-65
2023/04/09 02:19:37;;;;;;;71.50;43.80;;;;;;;6.55;70.24;101136.41;125081;1321;114929;-65
2023/04/09 02:28:02;;;;;;;70.70;44.50;;;;;;;6.48;70.53;101134.42;126229;1293;635411;-64
2023/04/09 02:32:04;;;;;;;67.80;43.10;;;;;;;6.42;70.68;101133.84;127571;1294;129004;-65
2023/04/09 02:36:07;;;;;;;70.60;44.00;;;;;;;6.39;70.84;101135.30;127894;1285;116523;-64
2023/04/09 02:40:12;;;;;;;70.70;42.90;;;;;;;6.36;70.75;101133.23;122645;1306;5423249;-64
2023/04/09 02:44:13;;;;;;;67.20;40.40;;;;;;;6.34;70.97;101131.86;125568;1304;114918;-66
2023/04/09 02:48:14;;;;;;;71.70;44.60;;;;;;;6.33;71.07;101132.41;124979;1311;114982;-64
2023/04/09 02:52:16;;;;;;;68.80;44.70;;;;;;;6.32;71.19;101138.45;124286;1326;114889;-64
2023/04/09 03:00:49;;;;;;;77.00;46.70;;;;;;;6.35;71.47;101131.29;125621;1304;641085;-64
2023/04/09 03:04:52;;;;;;;87.20;47.70;;;;;;;6.33;71.44;101130.27;126479;1292;128932;-65
2023/04/09 03:08:56;;;;;;;71.30;45.30;;;;;;;6.33;71.57;101130.27;126260;1292;115945;-65
2023/04/09 03:12:56;;;;;;;75.00;48.30;;;;;;;6.33;71.76;101129.91;121871;1304;5439110;-64
2023/04/09 03:16:58;;;;;;;75.20;46.30;;;;;;;6.31;71.66;101128.16;125009;1326;114981;-65
2023/04/09 03:25:27;;;;;;;67.60;44.10;;;;;;;6.33;72.09;101123.77;125511;1304;638728;-65
2023/04/09 03:29:29;;;;;;;78.30;48.80;;;;;;;6.32;72.14;101125.68;127864;1287;128913;-64
2023/04/09 03:33:34;;;;;;;76.20;47.70;;;;;;;6.31;72.23;101121.96;126368;1298;115782;-64
2023/04/09 03:37:35;;;;;;;69.00;44.40;;;;;;;6.32;72.09;101123.02;121618;1322;5429885;-65
2023/04/09 03:41:37;;;;;;;73.80;45.30;;;;;;;6.31;72.46;101118.60;124852;1311;114884;-65
2023/04/09 03:50:00;;;;;;;;;;;;;;;;;;;;;
2023/04/09 03:54:05;;;;;;;67.00;43.60;;;;;;;6.38;72.57;101120.59;127671;1287;129014;-65
2023/04/09 03:58:08;;;;;;;74.90;46.40;;;;;;;6.39;72.53;101122.33;127044;1290;115413;-65
2023/04/09 04:02:09;;;;;;;70.80;44.70;;;;;;;6.42;72.59;101127.79;122069;1318;5435860;-65
2023/04/09 04:06:04;;;;;;;77.20;46.50;;;;;;;6.44;72.67;101132.55;125017;1319;114913;-65
2023/04/09 04:10:06;;;;;;;72.60;45.10;;;;;;;6.46;72.49;101135.36;124499;1316;114879;-65
2023/04/09 04:26:37;;;;;;;74.60;47.20;;;;;;;6.49;73.00;101141.15;128952;1274;127013;-65
2023/04/09 04:30:39;;;;;;;75.70;47.20;;;;;;;6.51;73.18;101144.30;128368;1274;115464;-63
2023/04/09 04:34:43;;;;;;;78.00;49.20;;;;;;;6.51;73.51;101146.60;123901;1279;5491114;-65
2023/04/09 04:38:44;;;;;;;78.80;48.60;;;;;;;6.54;73.46;101149.74;126536;1295;114863;-63
2023/04/09 04:50:40;;;;;;;;;;;;;;;;;;;;;
2023/04/09 04:59:16;;;;;;;80.50;52.50;;;;;;;6.61;73.85;101152.46;125440;1314;642254;-64
2023/04/09 05:11:49;;;;;;;74.40;48.00;;;;;;;6.65;74.04;101154.16;127890;1281;128093;-64
2023/04/09 05:15:52;;;;;;;74.60;49.20;;;;;;;6.68;74.19;101154.81;127588;1288;116418;-65
2023/04/09 05:19:53;;;;;;;76.50;47.90;;;;;;;6.73;74.33;101155.23;122268;1299;5414416;-65
2023/04/09 05:28:15;;;;;;;83.90;51.60;;;;;;;6.85;74.42;101160.33;126364;1292;636071;-65
2023/04/09 05:32:18;;;;;;;75.10;48.30;;;;;;;6.88;74.37;101158.67;128526;1278;128524;-64
2023/04/09 05:44:26;;;;;;;98.50;56.50;;;;;;;7.05;74.88;101167.91;126768;1288;114971;-64
2023/04/09 05:48:19;;;;;;;100.30;61.50;;;;;;;7.11;74.90;101171.89;126208;1298;115377;-64
2023/04/09 05:52:11;;;;;;;;;;;;;;;;;;;;;
2023/04/09 06:13:10;;;;;;;73.70;48.80;;;;;;;7.30;75.43;101167.02;124621;1274;5433586;-64
2023/04/09 06:16:48;;;;;;;81.20;53.00;;;;;;;7.30;75.60;101172.70;127925;1281;114935;-64
2023/04/09 06:20:49;;;;;;;80.50;54.30;;;;;;;7.33;75.79;101165.73;126697;1291;114810;-64
2023/04/09 06:24:51;;;;;;;78.90;51.20;;;;;;;7.34;75.83;101159.13;125779;1318;114963;-64
2023/04/09 06:28:52;;;;;;;85.00;52.40;;;;;;;7.40;76.00;101161.11;125388;1323;129571;-64
2023/04/09 06:37:20;;;;;;;79.40;51.30;;;;;;;7.54;76.03;101163.48;125861;1299;635837;-64
2023/04/09 06:41:22;;;;;;;78.60;52.90;;;;;;;7.54;76.10;101167.38;127928;1283;128925;-65
2023/04/09 06:53:30;;;;;;;77.60;51.80;;;;;;;7.51;75.97;101178.11;124574;1329;114889;-65
2023/04/09 07:01:59;;;;;;;83.60;52.50;;;;;;;7.48;75.88;101182.45;125956;1297;638519;-64
2023/04/09 07:10:05;;;;;;;79.60;50.70;;;;;;;7.48;76.19;101190.63;127303;1284;115316;-64
2023/04/09 07:14:05;;;;;;;78.30;48.60;;;;;;;7.49;76.08;101194.86;122465;1296;5510247;-64
2023/04/09 07:18:07;;;;;;;83.00;52.30;;;;;;;7.45;75.91;101188.73;125707;1304;114865;-65
2023/04/09 07:26:37;;;;;;;77.50;49.60;;;;;;;7.50;76.47;101193.24;125206;1304;637906;-64
2023/04/09 07:30:27;;;;;;;76.20;49.10;;;;;;;7.52;76.28;101193.20;127727;1287;128845;-64
2023/04/09 07:34:31;;;;;;;75.40;49.00;;;;;;;7.56;76.57;101192.05;126714;1297;115540;-66
2023/04/09 07:42:08;;;;;;;73.20;48.00;;;;;;;7.66;76.57;101189.17;123660;1322;115011;-65
2023/04/09 07:49:50;;;;;;;;;;;;;;;;;;;;;
2023/04/09 07:54:11;;;;;;;72.30;47.40;;;;;;;7.78;76.62;101199.02;126269;1292;637188;-65
2023/04/09 07:58:14;;;;;;;80.30;52.70;;;;;;;7.83;76.73;101197.84;128737;1273;129109;-64
2023/04/09 08:09:47;;;;;;;;;;;;;;;7.87;76.14;101196.13;126811;1290;115045;-64
2023/04/09 08:17:53;;;;;;;71.40;47.40;;;;;;;7.84;76.33;101186.42;125664;1305;114903;-64
2023/04/09 08:26:06;;;;;;;72.50;48.60;;;;;;;7.85;76.60;101191.90;126247;1308;635956;-65
2023/04/09 08:30:08;;;;;;;81.30;53.60;;;;;;;7.90;76.45;101196.25;129308;1289;128775;-65
2023/04/09 08:38:12;;;;;;;77.00;52.40;;;;;;;8.00;76.38;101203.66;124507;1278;5438379;-65
2023/04/09 08:42:22;;;;;;;76.40;52.70;;;;;;;8.06;76.26;101201.71;127057;1289;114765;-65
2023/04/09 08:46:23;;;;;;;73.50;50.00;;;;;;;8.13;76.81;101202.44;126866;1309;114875;-65
2023/04/09 08:50:25;;;;;;;70.40;45.80;;;;;;;8.20;76.43;101202.80;126757;1293;115199;-64
2023/04/09 08:54:26;;;;;;;70.80;46.80;;;;;;;8.25;76.61;101207.30;126140;1316;129641;-64
2023/04/09 08:58:27;;;;;;;102.10;65.00;;;;;;;8.30;76.55;101208.76;125459;1317;115268;-64
2023/04/09 09:06:53;;;;;;;119.90;66.50;;;;;;;8.46;76.52;101203.20;125776;1300;635791;-64
2023/04/09 09:10:57;;;;;;;77.30;50.80;;;;;;;8.47;76.30;101199.80;128477;1281;128839;-63
2023/04/09 09:19:19;;;;;;;68.70;48.00;;;;;;;8.63;76.24;101211.16;122473;1291;5446225;-63
2023/04/09 09:22:58;;;;;;;65.10;43.80;;;;;;;8.66;75.99;101214.65;125984;1315;115043;-65
2023/04/09 09:26:50;;;;;;;;;;;;;;;;;;;;;
2023/04/09 09:30:53;;;;;;;60.30;40.60;;;;;;;8.67;75.97;101214.96;125649;1310;115265;-64
2023/04/09 09:34:54;;;;;;;70.00;47.10;;;;;;;8.68;75.73;101213.36;125209;1305;129709;-63
2023/04/09 09:47:40;;;;;;;62.90;43.10;;;;;;;8.72;75.64;101211.30;128564;1276;128567;-63
2023/04/09 09:51:43;;;;;;;65.80;44.10;;;;;;;8.70;75.72;101213.27;127807;1302;114845;-63
2023/04/09 09:55:45;;;;;;;66.50;45.30;;;;;;;8.68;75.92;101215.48;123636;1290;5411552;-64
2023/04/09 10:00:02;;;;;;;64.90;43.10;;;;;;;8.67;75.69;101208.74;125459;1314;115049;-63
2023/04/09 10:04:03;;;;;;;64.40;41.60;;;;;;;8.65;76.03;101203.63;125154;1310;115013;-65
2023/04/09 10:08:04;;;;;;;65.30;45.20;;;;;;;8.67;76.05;101206.08;124315;1332;115085;-64
2023/04/09 10:16:31;;;;;;;64.40;44.70;;;;;;;8.70;76.04;101206.00;125571;1301;635891;-67
2023/04/09 10:20:36;;;;;;;63.60;43.70;;;;;;;8.70;76.31;101202.78;127564;1302;128873;-62
2023/04/09 10:24:45;;;;;;;67.80;44.90;;;;;;;8.75;76.23;101206.22;126860;1304;115497;-63
2023/04/09 10:28:47;;;;;;;64.30;43.10;;;;;;;8.82;76.55;101207.10;121689;1298;5572185;-62
2023/04/09 10:32:48;;;;;;;67.60;43.50;;;;;;;8.85;76.01;101207.37;124686;1311;114972;-63
2023/04/09 10:45:19;;;;;;;;;;;;;;;;;;;;;
2023/04/09 10:49:12;;;;;;;66.00;45.00;;;;;;;8.96;76.57;101196.36;126579;1292;115438;-62
2023/04/09 10:53:11;;;;;;;75.10;48.00;;;;;;;9.01;76.66;101192.33;121924;1315;5434013;-63
2023/04/09 10:57:18;;;;;;;65.70;44.00;;;;;;;9.04;76.65;101196.31;125187;1308;114986;-63
2023/04/09 11:00:59;;;;;;;;;;;;;;;9.09;76.31;101201.70;124254;1331;114930;-62
2023/04/09 11:05:03;;;;;;;66.70;43.80;;;;;;;9.10;76.32;101200.78;124223;1331;128991;-62
2023/04/09 11:09:04;;;;;;;63.30;41.40;;;;;;;9.13;76.61;101198.73;124512;1314;115426;-61
2023/04/09 11:17:58;;;;;;;60.40;42.30;;;;;;;9.17;76.10;101192.75;126510;1296;635771;-65
2023/04/09 11:33:51;;;;;;;63.10;42.20;;;;;;;9.07;76.15;101181.98;125557;1301;114896;-65
2023/04/09 11:37:55;;;;;;;60.00;39.80;;;;;;;9.08;76.22;101180.87;125197;1324;114941;-65
2023/04/09 11:46:27;;;;;;;61.50;40.40;;;;;;;9.18;76.31;101167.94;125906;1297;638542;-63
2023/04/09 11:50:29;;;;;;;64.50;42.70;;;;;;;9.23;76.42;101180.27;128400;1278;128370;-62
2023/04/09 11:54:32;;;;;;;63.60;42.90;;;;;;;9.30;76.49;101188.44;127901;1301;115261;-66
2023/04/09 11:58:38;;;;;;;74.30;46.80;;;;;;;9.38;76.50;101190.16;123301;1286;5424327;-68
2023/04/09 12:02:42;;;;;;;75.00;44.80;;;;;;;9.38;76.22;101187.11;126592;1293;114835;-63
2023/04/09 12:06:43;;;;;;;71.50;44.60;;;;;;;9.39;76.31;101184.93;125584;1299;114853;-64
2023/04/09 12:10:48;;;;;;;62.00;41.60;;;;;;;9.46;76.55;101192.06;125087;1324;115063;-67
2023/04/09 12:19:34;;;;;;;60.20;41.80;;;;;;;9.64;76.62;101196.69;125992;1297;637686;-62
2023/04/09 12:27:28;;;;;;;63.70;42.20;;;;;;;9.80;76.31;101199.23;127517;1303;115309;-61
2023/04/09 12:31:31;;;;;;;58.00;40.70;;;;;;;9.83;76.19;101199.31;123127;1303;5453885;-61
2023/04/09 12:39:27;;;;;;;57.10;38.10;;;;;;;9.93;76.24;101197.91;125375;1322;115066;-62
2023/04/09 12:43:01;;;;;;;61.50;39.90;;;;;;;9.91;76.21;101193.33;124658;1329;115022;-62
2023/04/09 12:47:02;;;;;;;60.20;40.20;;;;;;;9.92;76.02;101192.23;124313;1329;129711;-64
2023/04/09 12:55:26;;;;;;;60.70;42.10;;;;;;;9.94;75.85;101190.39;125794;1297;635965;-62
2023/04/09 12:59:22;;;;;;;;;;;;;;;;;;;;;
2023/04/09 13:03:20;;;;;;;;;;;;;;;;;;;;;
2023/04/09 13:07:24;;;;;;;71.70;44.90;;;;;;;10.05;76.14;101190.02;121452;1311;5430909;-62
2023/04/09 13:11:24;;;;;;;70.20;44.10;;;;;;;10.10;75.86;101193.59;124733;1326;115017;-62
2023/04/09 13:19:27;;;;;;;66.50;45.80;;;;;;;10.21;76.16;101189.67;126109;1296;635256;-66
2023/04/09 13:26:57;;;;;;;67.50;45.50;;;;;;;10.22;75.74;101184.81;127960;1283;115410;-64
2023/04/09 13:35:06;;;;;;;62.00;42.70;;;;;;;10.13;75.40;101182.98;123082;1286;115168;-63
2023/04/09 13:39:09;;;;;;;70.50;44.30;;;;;;;10.02;75.55;101177.98;125442;1317;114928;-63
2023/04/09 13:47:30;;;;;;;76.10;48.20;;;;;;;9.87;75.53;101173.80;126792;1295;635448;-73
2023/04/09 13:51:34;;;;;;;70.60;47.00;;;;;;;9.81;75.98;101178.47;128946;1293;127557;-70
2023/04/09 13:55:36;;;;;;;73.50;46.40;;;;;;;9.77;75.93;101179.31;127387;1289;115396;-69
2023/04/09 14:03:32;;;;;;;73.30;47.50;;;;;;;9.67;76.09;101186.05;126025;1317;114880;-73
2023/04/09 14:11:59;;;;;;;;;;;;;;;;;;;;;
2023/04/09 14:16:19;;;;;;;72.50;46.00;;;;;;;9.55;76.35;101188.38;128825;1273;127821;-76
2023/04/09 14:20:23;;;;;;;74.40;49.90;;;;;;;9.52;76.38;101184.21;127272;1290;115299;-71
2023/04/09 14:24:24;;;;;;;;;;;;;;;;;;;;;
2023/04/09 14:28:26;;;;;;;65.80;45.00;;;;;;;9.44;76.28;101180.33;125585;1302;115676;-72
2023/04/09 14:41:01;;;;;;;63.80;43.60;;;;;;;9.41;76.90;101177.38;128094;1278;127836;-70
2023/04/09 14:45:02;;;;;;;68.00;46.20;;;;;;;9.42;76.76;101178.45;126460;1301;115450;-73
2023/04/09 14:49:04;;;;;;;66.80;45.30;;;;;;;9.41;76.69;101175.78;121813;1305;5423609;-72
2023/04/09 14:57:18;;;;;;;72.90;47.40;;;;;;;9.45;77.42;101171.95;126700;1295;635841;-71
2023/04/09 15:01:21;;;;;;;69.30;46.40;;;;;;;9.42;77.20;101172.23;128541;1273;126711;-74
2023/04/09 15:05:24;;;;;;;73.40;50.10;;;;;;;9.43;77.37;101172.55;128278;1281;115359;-73
2023/04/09 15:09:28;;;;;;;70.70;48.50;;;;;;;9.40;77.31;101173.48;123281;1289;5470851;-67
2023/04/09 15:13:28;;;;;;;68.90;47.50;;;;;;;9.38;77.39;101169.29;125907;1302;114952;-74
2023/04/09 15:17:30;;;;;;;73.50;49.50;;;;;;;9.35;77.53;101169.76;125246;1326;114834;-73
2023/04/09 15:25:51;;;;;;;70.50;47.80;;;;;;;9.37;77.61;101164.33;126685;1304;636164;-64
2023/04/09 15:29:56;;;;;;;70.40;47.40;;;;;;;9.34;77.83;101165.14;127942;1283;127888;-68
2023/04/09 15:34:00;;;;;;;67.60;46.40;;;;;;;9.33;77.91;101166.23;126458;1296;115406;-68
2023/04/09 15:37:58;;;;;;;66.50;46.80;;;;;;;9.30;77.79;101163.29;121518;1308;5436965;-71
2023/04/09 15:41:57;;;;;;;69.60;45.40;;;;;;;9.27;78.09;101162.50;124934;1324;114997;-71
2023/04/09 15:45:57;;;;;;;;;;;;;;;;;;;;;
2023/04/09 15:50:18;;;;;;;77.00;47.20;;;;;;;9.32;78.30;101154.69;126381;1304;635830;-72
2023/04/09 15:54:21;;;;;;;74.20;48.30;;;;;;;9.31;78.33;101158.45;128849;1279;129222;-71
2023/04/09 15:58:23;;;;;;;71.80;47.40;;;;;;;9.30;78.28;101155.45;127402;1288;115431;-66
2023/04/09 16:02:27;;;;;;;75.00;48.80;;;;;;;9.27;78.37;101155.54;122413;1296;5445783;-70
2023/04/09 16:06:28;;;;;;;78.90;50.10;;;;;;;9.25;78.42;101157.02;125579;1320;114904;-70
2023/04/09 16:14:49;;;;;;;75.30;50.30;;;;;;;9.25;78.58;101157.23;126366;1293;636569;-66
2023/04/09 16:18:41;;;;;;;76.00;48.80;;;;;;;9.21;78.50;101152.70;128899;1278;128336;-72
2023/04/09 16:22:36;;;;;;;;;;;;;;;;;;;;;
2023/04/09 16:26:43;;;;;;;76.60;49.40;;;;;;;9.17;78.73;101154.60;126996;1284;5439489;-66
2023/04/09 16:30:47;;;;;;;68.60;45.20;;;;;;;9.13;78.65;101151.15;128708;1274;115188;-67
2023/04/09 16:34:48;;;;;;;74.00;47.30;;;;;;;9.07;78.66;101149.17;127469;1302;129937;-67
2023/04/09 16:38:50;;;;;;;70.30;47.00;;;;;;;9.02;78.81;101147.20;127190;1292;115237;-71
2023/04/09 16:42:40;;;;;;;70.10;45.50;;;;;;;8.98;78.61;101149.27;125953;1297;114900;-73
2023/04/09 16:51:02;;;;;;;71.10;46.60;;;;;;;8.93;78.58;101146.58;126639;1291;636008;-73
2023/04/09 16:55:03;;;;;;;;;;;;;;;;;;;;;
2023/04/09 16:58:58;;;;;;;;;;;;;;;;;;;;;
2023/04/09 17:03:04;;;;;;;69.00;46.90;;;;;;;8.84;78.88;101159.48;124286;1282;5439157;-74
2023/04/09 17:07:03;;;;;;;;;;;;;;;;;;;;;
2023/04/09 17:15:25;;;;;;;79.30;49.70;;;;;;;8.80;79.21;101166.52;126392;1292;635488;-73
2023/04/09 17:19:17;;;;;;;82.30;52.40;;;;;;;8.78;79.07;101174.78;129375;1267;127987;-70
2023/04/09 17:23:18;;;;;;;;;;;;;;;;;;;;;
2023/04/09 17:27:13;;;;;;;84.40;54.70;;;;;;;8.75;79.22;101173.27;124995;1274;5432196;-73
2023/04/09 17:31:14;;;;;;;;;;;;;;;;;;;;;
2023/04/09 17:35:16;;;;;;;80.70;53.40;;;;;;;8.71;79.33;101177.29;127063;1305;115374;-71
2023/04/09 17:39:18;;;;;;;82.90;53.20;;;;;;;8.69;79.19;101180.02;126608;1312;114882;-67
2023/04/09 17:43:19;;;;;;;109.10;61.10;;;;;;;8.67;79.28;101180.27;125967;1295;130120;-65
2023/04/09 17:51:41;;;;;;;124.60;68.00;;;;;;;8.66;79.68;101187.05;126627;1295;636019;-73
2023/04/09 17:55:48;;;;;;;107.60;61.60;;;;;;;8.62;79.96;101185.19;128067;1284;130149;-68
2023/04/09 17:59:49;;;;;;;109.20;63.10;;;;;;;8.60;79.87;101188.62;127157;1291;114865;-73
2023/04/09 18:03:53;;;;;;;113.00;59.70;;;;;;;8.59;79.61;101192.05;122193;1303;5439097;-72
2023/04/09 18:07:55;;;;;;;97.00;54.70;;;;;;;8.58;79.71;101192.44;125748;1304;114968;-68
2023/04/09 18:11:55;;;;;;;89.20;50.70;;;;;;;8.56;79.85;101191.59;125014;1323;114889;-73
2023/04/09 18:20:15;;;;;;;76.80;47.60;;;;;;;8.56;79.79;101191.95;126235;1295;636023;-65
2023/04/09 18:28:23;;;;;;;76.10;48.60;;;;;;;8.49;80.19;101199.95;127561;1288;114865;-65
2023/04/09 18:32:27;;;;;;;74.40;46.70;;;;;;;8.46;79.94;101202.86;122590;1291;5410152;-67
2023/04/09 18:36:27;;;;;;;72.70;47.20;;;;;;;8.44;79.99;101204.48;125391;1307;114808;-69
2023/04/09 18:40:18;;;;;;;;;;;;;;;;;;;;;
2023/04/09 18:48:42;;;;;;;83.50;55.40;;;;;;;8.41;80.16;101210.81;126327;1295;636032;-62
2023/04/09 18:52:44;;;;;;;89.80;60.50;;;;;;;8.38;80.24;101216.23;128095;1280;127623;-63
2023/04/09 18:56:47;;;;;;;90.80;60.10;;;;;;;8.37;80.57;101219.46;127000;1285;115308;-67
2023/04/09 19:00:51;;;;;;;88.20;58.40;;;;;;;8.35;80.66;101229.30;122318;1296;5434254;-65
2023/04/09 19:05:16;;;;;;;84.80;56.50;;;;;;;8.33;80.59;101229.00;125285;1322;114854;-68
2023/04/09 19:12:48;;;;;;;;;;;;;;;;;;;;;
2023/04/09 19:21:11;;;;;;;92.00;58.60;;;;;;;8.34;80.61;101237.70;126402;1292;636003;-64
2023/04/09 19:25:13;;;;;;;;;;;;;;;;;;;;;
2023/04/09 19:29:17;;;;;;;100.20;61.10;;;;;;;8.31;80.91;101240.24;126823;1293;115262;-61
2023/04/09 19:33:07;;;;;;;87.70;55.80;;;;;;;8.30;80.62;101242.76;123916;1293;3072343;-66
2023/04/09 19:37:10;;;;;;;86.20;55.20;;;;;;;8.30;80.70;101241.87;125975;1301;114975;-67
2023/04/09 19:41:11;;;;;;;91.40;56.90;;;;;;;8.29;80.67;101244.05;125158;1317;114981;-61
2023/04/09 19:45:12;;;;;;;92.50;58.60;;;;;;;8.28;80.74;101247.82;124788;1323;115229;-66
2023/04/09 19:53:36;;;;;;;;;;;;;;;;;;;;;
2023/04/09 19:58:05;;;;;;;89.70;58.40;;;;;;;8.27;80.63;101247.85;128597;1286;128784;-67
2023/04/09 20:01:43;;;;;;;84.90;54.20;;;;;;;8.26;80.75;101252.67;127672;1287;115252;-63
2023/04/09 20:05:47;;;;;;;71.60;47.20;;;;;;;8.25;80.56;101248.59;122842;1290;5435640;-64
2023/04/09 20:09:41;;;;;;;77.80;49.00;;;;;;;8.24;80.93;101251.65;125400;1308;114846;-65
2023/04/09 20:13:42;;;;;;;113.70;67.10;;;;;;;8.22;80.92;101251.86;124895;1324;114997;-65
2023/04/09 20:22:21;;;;;;;99.10;57.20;;;;;;;8.23;80.98;101255.05;125807;1297;639612;-62
2023/04/09 20:26:24;;;;;;;87.30;54.40;;;;;;;8.20;80.79;101253.14;128605;1291;129075;-68
2023/04/09 20:30:27;;;;;;;80.60;49.50;;;;;;;8.17;80.83;101251.27;128792;1287;115982;-65
2023/04/09 20:34:28;;;;;;;74.20;47.20;;;;;;;8.13;80.73;101252.42;123409;1288;5451621;-67
2023/04/09 20:46:56;;;;;;;70.10;46.60;;;;;;;7.96;80.77;101250.52;126111;1292;636040;-62
2023/04/09 20:50:59;;;;;;;69.20;43.70;;;;;;;7.87;80.71;101248.75;128921;1278;128632;-63
2023/04/09 20:59:05;;;;;;;68.40;44.70;;;;;;;7.60;80.66;101242.45;123104;1289;5475396;-66
2023/04/09 21:03:06;;;;;;;73.50;45.60;;;;;;;7.55;80.91;101243.44;126061;1301;114958;-66
2023/04/09 21:07:07;;;;;;;66.00;44.10;;;;;;;7.50;80.94;101249.23;125635;1299;115182;-66
2023/04/09 21:10:49;;;;;;;;;;;;;;;7.46;80.91;101253.05;125028;1311;114916;-65
2023/04/09 21:14:48;;;;;;;;;;;;;;;;;;;;;
2023/04/09 21:22:38;;;;;;;;;;;;;;;;;;;;;
2023/04/09 21:26:43;;;;;;;74.00;47.00;;;;;;;7.35;81.08;101255.41;129447;1267;129242;-63
2023/04/09 21:30:39;;;;;;;;;;;;;;;;;;;;;
2023/04/09 21:34:38;;;;;;;76.90;47.90;;;;;;;7.31;81.01;101254.96;128277;1290;115188;-68
2023/04/09 21:43:03;;;;;;;94.10;56.90;;;;;;;7.30;81.23;101249.83;125683;1300;635295;-67
2023/04/09 21:51:09;;;;;;;83.80;51.90;;;;;;;7.22;81.20;101252.83;128541;1277;115342;-66
2023/04/09 21:59:13;;;;;;;81.10;51.80;;;;;;;7.09;80.81;101255.41;126769;1305;114912;-64
2023/04/09 22:03:14;;;;;;;86.20;52.10;;;;;;;7.01;80.69;101257.67;126145;1301;114989;-70
2023/04/09 22:11:31;;;;;;;;;;;;;;;;;;;;;
2023/04/09 22:15:35;;;;;;;85.40;50.60;;;;;;;6.81;80.68;101264.44;129025;1288;128811;-64
2023/04/09 22:19:38;;;;;;;89.30;52.10;;;;;;;6.79;81.06;101258.46;128341;1278;114744;-68
2023/04/09 22:31:37;;;;;;;81.40;48.00;;;;;;;6.80;81.56;101251.86;125535;1301;115741;-69
2023/04/09 22:43:39;;;;;;;85.40;52.40;;;;;;;6.81;81.63;101244.05;127100;1289;128514;-66
2023/04/09 22:47:42;;;;;;;94.80;57.80;;;;;;;6.78;81.52;101240.55;126423;1302;114863;-71
2023/04/09 22:51:45;;;;;;;87.60;51.20;;;;;;;6.75;81.49;101239.53;121864;1325;5443166;-69
2023/04/09 22:55:39;;;;;;;73.20;46.30;;;;;;;6.69;81.23;101245.84;124238;1316;114952;-68
2023/04/09 23:08:03;;;;;;;78.30;49.30;;;;;;;6.53;81.24;101247.55;128584;1278;129247;-64
2023/04/09 23:16:28;;;;;;;80.50;49.70;;;;;;;6.46;81.20;101247.67;126237;1295;635683;-69
2023/04/09 23:20:31;;;;;;;78.10;48.80;;;;;;;6.39;81.31;101245.13;128521;1276;128240;-65
2023/04/09 23:24:35;;;;;;;78.00;48.10;;;;;;;6.35;81.33;101247.15;127257;1289;115502;-61
2023/04/09 23:28:36;;;;;;;76.10;45.80;;;;;;;6.31;81.33;101247.04;122473;1297;5413082;-69
2023/04/09 23:32:36;;;;;;;71.70;44.20;;;;;;;6.27;81.35;101243.04;125711;1303;114891;-66
2023/04/09 23:36:30;;;;;;;;;;;;;;;;;;;;;
2023/04/09 23:40:13;;;;;;;;;;;;;;;;;;;;;
2023/04/09 23:44:22;;;;;;;70.50;45.40;;;;;;;6.17;81.25;101243.02;125671;1309;636669;-64
2023/04/09 23:52:22;;;;;;;70.20;43.40;;;;;;;6.06;81.31;101247.27;128268;1279;115353;-64
